Time;durP1;ratioP1;P1;durP2;ratioP2;P2;SDS_P1;SDS_P2;PMS_P1;PMS_P2;Temp;Humidity;BMP_temperature;BMP_pressure;BME280_temperature;BME280_humidity;BME280_pressure;Samples;Min_cycle;Max_cycle;Signal;HPM_P1;HPM_P2
2024/01/21 00:02:12;;;;;;;7.80;5.78;;;21.20;23.50;;;;;;5053064;28;20657;-55
2024/01/21 00:04:39;;;;;;;6.70;5.28;;;21.20;23.40;;;;;;5053203;28;20276;-55
2024/01/21 00:07:06;;;;;;;8.15;5.38;;;21.20;23.50;;;;;;5052779;28;20625;-55
2024/01/21 00:09:32;;;;;;;5.57;4.70;;;21.20;23.50;;;;;;5052709;28;20231;-53
2024/01/21 00:12:01;;;;;;;6.45;4.95;;;21.20;23.50;;;;;;5053029;28;20195;-51
2024/01/21 00:14:28;;;;;;;6.65;4.68;;;21.20;23.50;;;;;;5052846;28;20298;-54
2024/01/21 00:16:55;;;;;;;7.07;5.22;;;21.20;23.50;;;;;;5052740;28;20191;-55
2024/01/21 00:19:22;;;;;;;8.48;5.38;;;21.20;23.60;;;;;;5052916;28;20289;-55
2024/01/21 00:21:49;;;;;;;6.85;5.18;;;21.20;23.60;;;;;;5052771;28;20190;-54
2024/01/21 00:24:16;;;;;;;5.55;4.70;;;21.20;24.10;;;;;;5052233;28;20222;-56
2024/01/21 00:26:43;;;;;;;7.78;4.75;;;21.20;23.50;;;;;;5053039;28;20201;-50
2024/01/21 00:29:11;;;;;;;6.80;5.07;;;21.20;23.60;;;;;;5052535;28;20304;-55
2024/01/21 00:31:38;;;;;;;7.18;5.05;;;21.20;24.20;;;;;;5052922;28;20198;-56
2024/01/21 00:34:05;;;;;;;7.38;4.75;;;21.20;23.60;;;;;;5052716;28;20218;-54
2024/01/21 00:36:32;;;;;;;8.38;5.43;;;21.20;23.70;;;;;;5052365;28;20242;-55
2024/01/21 00:38:59;;;;;;;7.43;4.90;;;21.20;23.80;;;;;;5052586;28;20238;-50
2024/01/21 00:41:26;;;;;;;7.75;5.65;;;21.20;23.80;;;;;;5052278;28;20607;-56
2024/01/21 00:43:53;;;;;;;7.80;5.10;;;21.20;23.80;;;;;;5051990;28;20231;-55
2024/01/21 00:46:21;;;;;;;7.75;5.18;;;21.20;23.90;;;;;;5050468;28;20188;-56
2024/01/21 00:48:48;;;;;;;8.38;5.13;;;21.20;23.80;;;;;;5052247;28;20294;-55
2024/01/21 00:51:15;;;;;;;7.43;5.15;;;21.20;23.80;;;;;;5051887;28;20237;-52
2024/01/21 00:53:42;;;;;;;6.55;4.28;;;21.20;24.00;;;;;;5051977;28;20641;-50
2024/01/21 00:56:09;;;;;;;6.75;4.97;;;21.20;24.00;;;;;;5052421;28;20597;-51
2024/01/21 00:58:36;;;;;;;7.10;4.90;;;21.20;24.00;;;;;;5051338;28;20302;-54
2024/01/21 01:01:03;;;;;;;5.70;4.50;;;21.20;24.00;;;;;;5051630;28;20211;-53
2024/01/21 01:03:31;;;;;;;8.18;5.30;;;21.20;24.00;;;;;;5051542;28;20234;-53
2024/01/21 01:05:59;;;;;;;6.80;4.75;;;21.20;24.00;;;;;;5051794;28;20224;-54
2024/01/21 01:08:26;;;;;;;5.75;4.45;;;21.20;24.10;;;;;;5050999;28;20641;-53
2024/01/21 01:10:53;;;;;;;6.05;4.32;;;21.20;24.00;;;;;;5052120;28;20222;-49
2024/01/21 01:13:20;;;;;;;5.70;4.45;;;21.20;24.10;;;;;;5051699;28;20230;-53
2024/01/21 01:15:47;;;;;;;6.50;4.65;;;21.30;24.10;;;;;;5051961;28;20298;-52
2024/01/21 01:18:15;;;;;;;6.82;4.45;;;21.30;24.10;;;;;;5051947;28;20215;-53
2024/01/21 01:20:43;;;;;;;5.78;4.30;;;21.30;24.10;;;;;;5051342;28;20227;-52
2024/01/21 01:23:10;;;;;;;5.82;4.50;;;21.30;24.10;;;;;;5051969;28;20278;-51
2024/01/21 01:25:37;;;;;;;6.35;4.28;;;21.30;24.10;;;;;;5051940;28;20224;-53
2024/01/21 01:28:05;;;;;;;7.30;4.55;;;21.30;24.20;;;;;;5051480;28;20286;-50
2024/01/21 01:30:32;;;;;;;7.78;4.90;;;21.30;24.20;;;;;;5051700;28;20586;-53
2024/01/21 01:32:58;;;;;;;7.63;4.68;;;21.30;24.30;;;;;;5051947;28;20194;-50
2024/01/21 01:35:26;;;;;;;6.72;4.38;;;21.30;24.40;;;;;;5051804;28;20219;-52
2024/01/21 01:37:54;;;;;;;6.03;4.10;;;21.30;25.00;;;;;;5055534;28;20685;-52
2024/01/21 01:40:21;;;;;;;8.35;4.30;;;21.30;24.40;;;;;;5055843;28;20310;-53
2024/01/21 01:42:56;;;;;;;5.97;4.40;;;21.30;24.50;;;;;;5055444;28;20191;-51
2024/01/21 01:45:23;;;;;;;6.20;4.22;;;21.30;24.50;;;;;;5055527;28;20227;-50
2024/01/21 01:47:51;;;;;;;4.93;3.92;;;21.30;24.50;;;;;;5055596;28;20188;-50
2024/01/21 01:50:18;;;;;;;5.55;4.22;;;21.30;24.60;;;;;;5055270;28;20219;-54
2024/01/21 01:52:45;;;;;;;6.00;4.53;;;21.30;24.60;;;;;;5055103;28;20190;-53
2024/01/21 01:55:14;;;;;;;7.30;3.97;;;21.30;24.60;;;;;;5055762;28;20251;-51
2024/01/21 01:57:41;;;;;;;5.28;3.95;;;21.30;24.70;;;;;;5054896;28;20195;-53
2024/01/21 02:00:09;;;;;;;5.45;4.10;;;21.30;24.70;;;;;;5055627;28;20254;-49
2024/01/21 02:02:36;;;;;;;6.25;4.47;;;21.30;24.80;;;;;;5055161;28;20619;-53
2024/01/21 02:05:04;;;;;;;5.80;3.95;;;21.30;24.80;;;;;;5055046;28;20278;-55
2024/01/21 02:07:31;;;;;;;5.78;4.10;;;21.30;24.90;;;;;;5055174;28;20192;-50
2024/01/21 02:09:59;;;;;;;5.75;4.00;;;21.30;24.90;;;;;;5055072;28;20231;-54
2024/01/21 02:12:28;;;;;;;5.93;3.78;;;21.30;24.90;;;;;;5054907;28;20286;-49
2024/01/21 02:14:55;;;;;;;4.88;3.65;;;21.30;24.90;;;;;;5055040;28;20221;-52
2024/01/21 02:17:22;;;;;;;6.47;3.95;;;21.30;25.00;;;;;;5055110;28;20179;-54
2024/01/21 02:19:48;;;;;;;5.32;3.92;;;21.30;25.00;;;;;;5054529;28;20227;-53
2024/01/21 02:22:15;;;;;;;5.60;3.90;;;21.30;25.00;;;;;;5054887;28;20263;-51
2024/01/21 02:24:44;;;;;;;5.25;3.72;;;21.30;25.10;;;;;;5054808;28;20781;-50
2024/01/21 02:27:11;;;;;;;5.93;3.83;;;21.30;25.10;;;;;;5054469;28;20194;-50
2024/01/21 02:29:38;;;;;;;6.00;4.18;;;21.30;25.10;;;;;;5054955;28;20302;-48
2024/01/21 02:32:05;;;;;;;5.15;3.60;;;21.30;25.20;;;;;;5054830;28;20184;-49
2024/01/21 02:34:32;;;;;;;5.53;3.83;;;21.30;25.20;;;;;;5054003;28;20222;-52
2024/01/21 02:36:59;;;;;;;5.07;3.65;;;21.30;25.30;;;;;;5054744;28;20188;-51
2024/01/21 02:39:26;;;;;;;5.47;4.03;;;21.30;25.30;;;;;;5054703;28;20317;-51
2024/01/21 02:41:54;;;;;;;5.75;3.70;;;21.30;25.30;;;;;;5054180;28;20272;-50
2024/01/21 02:44:21;;;;;;;6.18;3.83;;;21.30;25.40;;;;;;5054680;28;20302;-53
2024/01/21 02:46:48;;;;;;;5.50;3.55;;;21.30;25.50;;;;;;5054004;28;20663;-50
2024/01/21 02:49:16;;;;;;;6.80;3.60;;;21.30;25.50;;;;;;5054066;28;20215;-53
2024/01/21 02:51:43;;;;;;;5.35;3.60;;;21.30;25.50;;;;;;5054185;28;20198;-51
2024/01/21 02:54:10;;;;;;;7.45;3.60;;;21.30;25.50;;;;;;5054545;28;20184;-54
2024/01/21 02:56:37;;;;;;;4.60;3.67;;;21.30;25.50;;;;;;5053948;28;20278;-53
2024/01/21 02:59:05;;;;;;;3.75;2.92;;;21.30;25.50;;;;;;5054206;28;20234;-51
2024/01/21 03:01:34;;;;;;;5.28;3.75;;;21.30;25.60;;;;;;5052570;28;20278;-49
2024/01/21 03:04:01;;;;;;;4.88;3.42;;;21.30;25.60;;;;;;5053696;28;20188;-54
2024/01/21 03:06:28;;;;;;;4.20;3.30;;;21.30;25.70;;;;;;5054093;28;20271;-50
2024/01/21 03:08:54;;;;;;;4.45;3.10;;;21.30;25.70;;;;;;5053539;28;20314;-50
2024/01/21 03:11:21;;;;;;;3.70;3.10;;;21.30;25.70;;;;;;5054366;28;20642;-54
2024/01/21 03:13:48;;;;;;;5.75;2.90;;;21.30;25.70;;;;;;5053947;28;20188;-52
2024/01/21 03:16:17;;;;;;;6.32;3.40;;;21.30;25.80;;;;;;5054347;28;20215;-50
2024/01/21 03:18:44;;;;;;;4.50;3.42;;;21.30;25.80;;;;;;5053630;28;20207;-53
2024/01/21 03:21:11;;;;;;;5.32;3.53;;;21.30;25.90;;;;;;5053921;28;20211;-50
2024/01/21 03:23:38;;;;;;;6.78;3.20;;;21.30;25.90;;;;;;5053772;28;20282;-50
2024/01/21 03:26:05;;;;;;;4.72;3.50;;;21.30;25.90;;;;;;5054226;28;20220;-54
2024/01/21 03:28:32;;;;;;;4.65;3.30;;;21.30;26.00;;;;;;5053245;28;20560;-50
2024/01/21 03:30:59;;;;;;;6.07;3.42;;;21.30;26.60;;;;;;5054064;28;20216;-51
2024/01/21 03:33:28;;;;;;;5.32;3.38;;;21.30;26.10;;;;;;5053678;28;20338;-50
2024/01/21 03:35:55;;;;;;;5.93;3.25;;;21.30;26.10;;;;;;5053562;28;20226;-51
2024/01/21 03:38:22;;;;;;;5.47;3.50;;;21.30;26.10;;;;;;5053117;28;20205;-48
2024/01/21 03:40:49;;;;;;;5.25;3.10;;;21.30;26.10;;;;;;5053488;28;20302;-50
2024/01/21 03:43:17;;;;;;;4.57;3.20;;;21.40;26.20;;;;;;5053305;28;20187;-52
2024/01/21 03:45:44;;;;;;;6.55;3.47;;;21.30;26.10;;;;;;5053941;28;20255;-51
2024/01/21 03:48:11;;;;;;;4.95;3.22;;;21.30;26.20;;;;;;5053234;28;20218;-54
2024/01/21 03:50:40;;;;;;;6.43;3.28;;;21.40;26.30;;;;;;5052660;28;20604;-52
2024/01/21 03:53:07;;;;;;;4.13;2.88;;;21.40;26.30;;;;;;5053032;28;20711;-50
2024/01/21 03:55:33;;;;;;;4.88;2.90;;;21.40;26.40;;;;;;5053342;28;20723;-51
2024/01/21 03:58:00;;;;;;;5.53;3.47;;;21.40;26.40;;;;;;5052619;28;20210;-51
2024/01/21 04:00:27;;;;;;;4.20;3.00;;;21.40;26.40;;;;;;5052926;28;20257;-51
2024/01/21 04:02:54;;;;;;;6.15;3.22;;;21.40;26.50;;;;;;5053192;28;20550;-50
2024/01/21 04:05:21;;;;;;;4.63;3.03;;;21.40;26.50;;;;;;5053040;28;20627;-49
2024/01/21 04:07:49;;;;;;;4.47;2.83;;;21.40;27.10;;;;;;5052714;28;20283;-51
2024/01/21 04:10:16;;;;;;;4.18;2.80;;;21.40;26.60;;;;;;5053106;28;20223;-51
2024/01/21 04:12:43;;;;;;;4.95;2.92;;;21.40;26.70;;;;;;5052807;28;20198;-53
2024/01/21 04:15:10;;;;;;;5.13;2.70;;;21.30;26.60;;;;;;5053150;28;20322;-53
2024/01/21 04:17:37;;;;;;;5.90;3.03;;;21.40;26.70;;;;;;5052548;28;20194;-50
2024/01/21 04:20:07;;;;;;;4.10;2.70;;;21.30;26.70;;;;;;5052495;28;20231;-54
2024/01/21 04:22:34;;;;;;;4.70;2.72;;;21.30;26.70;;;;;;5052445;28;20187;-53
2024/01/21 04:25:03;;;;;;;5.82;3.10;;;21.40;26.80;;;;;;5052832;28;20226;-54
2024/01/21 04:27:30;;;;;;;4.55;3.00;;;21.30;26.70;;;;;;5052221;28;20282;-55
2024/01/21 04:29:57;;;;;;;4.90;3.10;;;21.40;26.80;;;;;;5052704;28;20220;-54
2024/01/21 04:32:24;;;;;;;5.43;2.70;;;21.40;27.40;;;;;;5052542;28;20208;-50
2024/01/21 04:34:51;;;;;;;5.90;3.22;;;21.40;26.90;;;;;;5052320;28;20216;-49
2024/01/21 04:37:18;;;;;;;5.47;3.13;;;21.40;26.90;;;;;;5052554;28;20187;-55
2024/01/21 04:39:45;;;;;;;4.25;2.65;;;21.40;27.00;;;;;;5052557;28;20310;-52
2024/01/21 04:42:14;;;;;;;6.53;2.88;;;21.30;26.90;;;;;;5051897;28;20286;-49
2024/01/21 04:44:41;;;;;;;3.75;2.70;;;21.30;27.00;;;;;;5052386;28;20215;-52
2024/01/21 04:47:08;;;;;;;3.40;2.60;;;21.40;27.00;;;;;;5052508;28;20195;-49
2024/01/21 04:49:34;;;;;;;6.20;2.95;;;21.40;27.10;;;;;;5050406;28;20349;-54
2024/01/21 04:52:02;;;;;;;4.85;3.13;;;21.40;27.10;;;;;;5052388;28;20269;-54
2024/01/21 04:54:29;;;;;;;5.93;3.25;;;21.40;27.20;;;;;;5052073;28;20220;-51
2024/01/21 04:56:56;;;;;;;4.90;3.05;;;21.40;27.20;;;;;;5051708;28;20192;-51
2024/01/21 04:59:24;;;;;;;5.13;3.10;;;21.40;27.20;;;;;;5051438;28;20215;-53
2024/01/21 05:01:51;;;;;;;3.95;2.70;;;21.40;27.20;;;;;;5052320;28;20271;-52
2024/01/21 05:04:18;;;;;;;4.90;2.80;;;21.40;27.20;;;;;;5051884;28;20196;-51
2024/01/21 05:06:45;;;;;;;4.38;2.88;;;21.40;27.30;;;;;;5052387;28;20198;-54
2024/01/21 05:09:12;;;;;;;6.70;3.10;;;21.40;27.30;;;;;;5051770;28;20339;-53
2024/01/21 05:11:39;;;;;;;5.13;2.90;;;21.40;27.30;;;;;;5051949;28;20195;-52
2024/01/21 05:14:06;;;;;;;5.88;2.80;;;21.40;27.40;;;;;;5051955;28;20192;-53
2024/01/21 05:16:34;;;;;;;6.00;2.83;;;21.40;27.40;;;;;;5052218;28;20270;-54
2024/01/21 05:19:01;;;;;;;5.45;2.83;;;21.40;27.40;;;;;;5051731;28;20215;-55
2024/01/21 05:21:28;;;;;;;5.95;2.95;;;21.40;27.50;;;;;;5052474;28;20231;-54
2024/01/21 05:23:55;;;;;;;5.25;2.90;;;21.40;27.50;;;;;;5052156;28;20270;-53
2024/01/21 05:26:22;;;;;;;6.63;2.88;;;21.40;27.50;;;;;;5051737;28;20215;-51
2024/01/21 05:28:49;;;;;;;5.45;3.08;;;21.40;27.60;;;;;;5052183;28;20270;-51
2024/01/21 05:31:16;;;;;;;3.35;2.50;;;21.40;27.60;;;;;;5052320;28;20265;-51
2024/01/21 05:33:46;;;;;;;4.05;3.08;;;21.40;27.60;;;;;;5051427;28;20279;-56
2024/01/21 05:36:13;;;;;;;6.00;2.97;;;21.40;27.70;;;;;;5052045;28;20285;-53
2024/01/21 05:38:42;;;;;;;3.42;2.45;;;21.40;27.70;;;;;;5052184;28;20187;-54
2024/01/21 05:41:08;;;;;;;5.90;2.80;;;21.40;27.70;;;;;;5049147;28;20234;-51
2024/01/21 05:43:35;;;;;;;6.53;2.90;;;21.40;27.70;;;;;;5051897;28;20408;-53
2024/01/21 05:46:03;;;;;;;4.22;2.67;;;21.40;27.80;;;;;;5051724;28;20294;-49
2024/01/21 05:48:30;;;;;;;4.45;2.83;;;21.40;27.80;;;;;;5051507;28;20618;-52
2024/01/21 05:50:58;;;;;;;5.28;2.95;;;21.40;27.80;;;;;;5051652;28;20237;-50
2024/01/21 05:53:25;;;;;;;7.07;2.80;;;21.40;27.80;;;;;;5051856;28;20192;-49
2024/01/21 05:55:52;;;;;;;5.22;2.70;;;21.40;28.40;;;;;;5051123;28;21888;-51
2024/01/21 05:58:19;;;;;;;5.78;2.80;;;21.40;27.90;;;;;;5051550;28;20245;-50
2024/01/21 06:00:46;;;;;;;4.95;2.70;;;21.40;28.00;;;;;;5050827;28;20715;-55
2024/01/21 06:03:14;;;;;;;6.00;2.70;;;21.50;28.10;;;;;;5051476;28;20199;-54
2024/01/21 06:05:40;;;;;;;5.43;3.13;;;21.40;28.10;;;;;;5051382;28;20216;-53
2024/01/21 06:08:10;;;;;;;6.40;3.03;;;21.40;28.20;;;;;;5051493;28;20231;-49
2024/01/21 06:10:37;;;;;;;3.00;2.33;;;21.40;28.20;;;;;;5051419;28;20215;-54
2024/01/21 06:13:04;;;;;;;4.47;2.45;;;21.40;28.20;;;;;;5051737;28;20220;-52
2024/01/21 06:15:31;;;;;;;5.03;2.97;;;21.40;28.20;;;;;;5051745;28;20318;-51
2024/01/21 06:17:58;;;;;;;5.35;2.30;;;21.40;28.20;;;;;;5051119;28;20195;-52
2024/01/21 06:20:25;;;;;;;5.18;2.60;;;21.40;28.20;;;;;;5051363;28;20659;-52
2024/01/21 06:22:52;;;;;;;4.43;3.10;;;21.40;28.20;;;;;;5053635;28;20184;-52
2024/01/21 06:25:21;;;;;;;5.85;2.83;;;21.40;28.20;;;;;;5054864;28;20306;-52
2024/01/21 06:27:49;;;;;;;6.75;2.60;;;21.40;28.20;;;;;;5054674;28;20653;-52
2024/01/21 06:30:18;;;;;;;4.70;2.53;;;21.40;28.20;;;;;;5055047;28;20215;-50
2024/01/21 06:32:45;;;;;;;5.93;2.72;;;21.40;28.20;;;;;;5054557;28;20192;-54
2024/01/21 06:35:12;;;;;;;4.75;2.50;;;21.40;28.20;;;;;;5054958;28;20235;-55
2024/01/21 06:37:39;;;;;;;5.25;2.40;;;21.40;28.20;;;;;;5054619;28;20571;-51
2024/01/21 06:40:07;;;;;;;5.45;2.30;;;21.40;28.20;;;;;;5053955;28;20693;-54
2024/01/21 06:42:37;;;;;;;4.72;2.40;;;21.40;28.20;;;;;;5054678;28;20199;-55
2024/01/21 06:45:04;;;;;;;4.53;2.70;;;21.40;28.30;;;;;;5054962;28;20251;-53
2024/01/21 06:47:31;;;;;;;5.18;2.53;;;21.50;28.40;;;;;;5054367;28;20188;-53
2024/01/21 06:49:58;;;;;;;5.63;2.47;;;21.40;28.40;;;;;;5054604;28;20215;-52
2024/01/21 06:52:25;;;;;;;4.10;2.10;;;21.40;28.40;;;;;;5054577;28;20184;-52
2024/01/21 06:54:52;;;;;;;4.13;2.33;;;21.40;28.50;;;;;;5054058;28;20221;-52
2024/01/21 06:57:19;;;;;;;4.03;2.30;;;21.40;28.50;;;;;;5054519;28;20270;-54
2024/01/21 06:59:47;;;;;;;5.13;2.55;;;21.40;28.50;;;;;;5054333;28;20231;-54
2024/01/21 07:02:14;;;;;;;5.18;2.72;;;21.40;28.60;;;;;;5053611;28;20192;-54
2024/01/21 07:04:41;;;;;;;4.47;2.30;;;21.40;28.60;;;;;;5054246;28;20306;-53
2024/01/21 07:07:08;;;;;;;5.35;2.67;;;21.40;28.60;;;;;;5054375;28;20616;-49
2024/01/21 07:09:35;;;;;;;4.40;2.45;;;21.40;28.70;;;;;;5053526;28;20238;-51
2024/01/21 07:12:04;;;;;;;4.57;2.30;;;21.40;28.70;;;;;;5054154;28;20191;-52
2024/01/21 07:14:34;;;;;;;4.35;2.30;;;21.50;28.80;;;;;;5053829;28;20200;-53
2024/01/21 07:17:03;;;;;;;4.82;2.30;;;21.50;28.80;;;;;;5053821;28;20221;-54
2024/01/21 07:19:30;;;;;;;4.70;2.00;;;21.50;28.90;;;;;;5054029;28;20192;-50
2024/01/21 07:21:57;;;;;;;4.45;2.42;;;21.50;28.90;;;;;;5053764;28;20629;-51
2024/01/21 07:24:24;;;;;;;5.15;2.55;;;21.50;28.90;;;;;;5053519;28;20191;-50
2024/01/21 07:26:51;;;;;;;4.18;2.35;;;21.50;29.00;;;;;;5053698;28;20245;-54
2024/01/21 07:29:17;;;;;;;4.32;2.38;;;21.50;29.00;;;;;;5053974;28;20187;-54
2024/01/21 07:31:44;;;;;;;4.70;2.78;;;21.50;29.00;;;;;;5053371;28;20302;-52
2024/01/21 07:34:13;;;;;;;5.28;2.40;;;21.50;29.10;;;;;;5053846;28;20266;-47
2024/01/21 07:36:40;;;;;;;5.38;2.53;;;21.50;29.10;;;;;;5053230;28;20595;-50
2024/01/21 07:39:07;;;;;;;3.85;2.17;;;21.50;29.10;;;;;;5053146;28;20230;-52
2024/01/21 07:41:35;;;;;;;5.80;2.55;;;21.50;29.20;;;;;;5053357;28;20227;-53
2024/01/21 07:44:02;;;;;;;6.38;2.47;;;21.50;29.20;;;;;;5053681;28;20282;-52
2024/01/21 07:46:28;;;;;;;3.45;2.20;;;21.50;29.20;;;;;;5053076;28;20298;-52
2024/01/21 07:48:55;;;;;;;6.00;2.20;;;21.50;29.30;;;;;;5053499;28;20601;-52
2024/01/21 07:51:24;;;;;;;6.10;2.70;;;21.50;29.30;;;;;;5053350;28;20222;-50
2024/01/21 07:53:51;;;;;;;6.85;2.38;;;21.50;29.30;;;;;;5052970;28;20187;-52
2024/01/21 07:56:18;;;;;;;6.07;2.45;;;21.50;29.30;;;;;;5053421;28;20303;-52
2024/01/21 07:58:45;;;;;;;4.95;1.90;;;21.50;29.40;;;;;;5052927;28;20325;-50
2024/01/21 08:01:12;;;;;;;4.95;2.30;;;21.50;29.40;;;;;;5052742;28;20345;-52
2024/01/21 08:03:39;;;;;;;6.88;2.35;;;21.50;29.40;;;;;;5053229;28;20191;-55
2024/01/21 08:06:07;;;;;;;5.22;2.55;;;21.50;29.40;;;;;;5053564;28;20254;-53
2024/01/21 08:08:36;;;;;;;4.75;2.25;;;21.50;29.50;;;;;;5052498;28;20223;-50
2024/01/21 08:11:03;;;;;;;4.63;1.90;;;21.50;29.50;;;;;;5053194;28;20243;-51
2024/01/21 08:13:30;;;;;;;5.45;2.65;;;21.50;29.50;;;;;;5052773;28;20685;-51
2024/01/21 08:15:57;;;;;;;5.55;2.50;;;21.50;29.50;;;;;;5052386;28;20310;-49
2024/01/21 08:18:24;;;;;;;7.35;2.40;;;21.50;29.60;;;;;;5052575;28;20201;-52
2024/01/21 08:20:51;;;;;;;4.95;2.33;;;21.50;29.60;;;;;;5052769;28;20235;-53
2024/01/21 08:23:19;;;;;;;4.30;2.30;;;21.50;29.60;;;;;;5052435;28;20249;-53
2024/01/21 08:25:47;;;;;;;5.20;2.20;;;21.50;29.70;;;;;;5052510;28;20302;-53
2024/01/21 08:28:14;;;;;;;3.75;2.15;;;21.50;29.70;;;;;;5052736;28;20190;-51
2024/01/21 08:30:41;;;;;;;4.95;2.15;;;21.50;29.70;;;;;;5052165;28;20713;-50
2024/01/21 08:33:09;;;;;;;5.40;1.98;;;21.50;29.80;;;;;;5052287;28;20660;-53
2024/01/21 08:35:37;;;;;;;5.18;2.17;;;21.50;29.80;;;;;;5052705;28;20269;-56
2024/01/21 08:38:04;;;;;;;4.38;1.92;;;21.50;29.80;;;;;;5052207;28;20195;-49
2024/01/21 08:40:31;;;;;;;5.88;2.05;;;21.60;29.90;;;;;;5052159;28;20235;-54
2024/01/21 08:43:00;;;;;;;6.07;2.30;;;21.50;29.90;;;;;;5052249;28;20230;-51
2024/01/21 08:45:27;;;;;;;4.43;1.90;;;21.50;29.90;;;;;;5051492;28;20298;-53
2024/01/21 08:47:54;;;;;;;3.88;2.05;;;21.50;30.00;;;;;;5052325;28;20237;-53
2024/01/21 08:50:21;;;;;;;4.60;2.08;;;21.50;30.00;;;;;;5052460;28;20302;-53
2024/01/21 08:52:48;;;;;;;5.88;2.15;;;21.60;30.00;;;;;;5051795;28;20274;-50
2024/01/21 08:55:15;;;;;;;5.45;1.92;;;21.60;30.00;;;;;;5052456;28;20657;-53
2024/01/21 08:57:42;;;;;;;5.18;2.25;;;21.60;30.10;;;;;;5051828;28;20188;-55
2024/01/21 09:00:12;;;;;;;3.50;2.20;;;21.60;30.10;;;;;;5051873;28;20235;-53
2024/01/21 09:02:39;;;;;;;4.30;1.70;;;21.60;30.20;;;;;;5051953;28;20685;-50
2024/01/21 09:05:07;;;;;;;5.70;2.17;;;21.60;30.20;;;;;;5052267;28;20219;-50
2024/01/21 09:07:34;;;;;;;5.50;2.03;;;21.50;30.10;;;;;;5051493;28;20270;-54
2024/01/21 09:10:03;;;;;;;5.78;2.17;;;21.60;30.20;;;;;;5052354;28;20250;-48
2024/01/21 09:12:31;;;;;;;5.32;1.80;;;21.60;30.30;;;;;;5051888;28;20253;-52
2024/01/21 09:14:58;;;;;;;5.57;2.08;;;21.60;30.30;;;;;;5051726;28;20251;-53
2024/01/21 09:17:26;;;;;;;5.03;2.08;;;21.60;30.40;;;;;;5051985;28;20617;-51
2024/01/21 09:19:53;;;;;;;6.63;1.88;;;21.60;30.40;;;;;;5052060;28;20219;-54
2024/01/21 09:22:20;;;;;;;4.80;2.00;;;21.60;30.50;;;;;;5051360;28;20215;-55
2024/01/21 09:24:48;;;;;;;4.97;2.20;;;21.60;30.50;;;;;;5051864;28;20198;-54
2024/01/21 09:27:15;;;;;;;4.65;1.80;;;21.60;30.50;;;;;;5051908;28;20191;-51
2024/01/21 09:29:43;;;;;;;4.05;1.88;;;21.60;30.60;;;;;;5051295;28;20667;-54
2024/01/21 09:32:11;;;;;;;8.63;2.70;;;21.60;30.60;;;;;;5051870;28;20282;-53
2024/01/21 09:34:39;;;;;;;5.85;2.15;;;21.60;30.60;;;;;;5051848;28;20198;-50
2024/01/21 09:37:06;;;;;;;5.07;1.80;;;21.60;30.70;;;;;;5051190;28;20646;-51
2024/01/21 09:39:33;;;;;;;4.45;2.08;;;21.60;30.70;;;;;;5051869;28;20198;-53
2024/01/21 09:42:00;;;;;;;4.38;2.13;;;21.60;30.70;;;;;;5051124;28;20223;-50
2024/01/21 09:44:29;;;;;;;4.38;2.00;;;21.60;30.80;;;;;;5050349;28;20274;-53
2024/01/21 09:46:58;;;;;;;4.88;2.05;;;21.60;30.90;;;;;;5051731;28;20588;-53
2024/01/21 09:49:26;;;;;;;4.07;2.20;;;21.60;30.90;;;;;;5051563;28;20192;-51
2024/01/21 09:51:55;;;;;;;6.63;2.22;;;21.60;30.90;;;;;;5051049;28;20265;-51
2024/01/21 09:54:23;;;;;;;5.57;2.08;;;21.60;31.00;;;;;;5051417;28;20275;-51
2024/01/21 09:56:50;;;;;;;5.55;2.33;;;21.60;31.10;;;;;;5052551;28;20226;-51
2024/01/21 09:59:17;;;;;;;5.70;2.00;;;21.70;31.20;;;;;;5055185;28;20187;-51
2024/01/21 10:01:44;;;;;;;7.13;2.25;;;21.60;31.10;;;;;;5055287;28;20234;-50
2024/01/21 10:04:12;;;;;;;6.18;2.42;;;21.60;31.10;;;;;;5055374;28;20646;-51
2024/01/21 10:06:39;;;;;;;7.75;2.35;;;21.60;31.10;;;;;;5055052;28;20728;-54
2024/01/21 10:09:16;;;;;;;8.15;2.40;;;21.60;31.20;;;;;;5055128;28;20318;-49
2024/01/21 10:11:43;;;;;;;7.78;2.20;;;21.70;32.00;;;;;;5055529;28;20219;-53
2024/01/21 10:14:11;;;;;;;5.22;2.13;;;21.60;31.30;;;;;;5055152;28;20199;-52
2024/01/21 10:16:42;;;;;;;7.93;2.30;;;21.60;31.30;;;;;;5055336;28;20218;-51
2024/01/21 10:19:12;;;;;;;5.53;2.00;;;21.60;31.40;;;;;;5055168;28;20227;-50
2024/01/21 10:21:39;;;;;;;7.15;2.05;;;21.70;31.50;;;;;;5054768;28;20606;-55
2024/01/21 10:24:08;;;;;;;10.25;2.28;;;21.60;31.50;;;;;;5054933;28;20188;-54
2024/01/21 10:26:37;;;;;;;6.22;2.30;;;21.60;31.50;;;;;;5055402;28;20216;-55
2024/01/21 10:29:04;;;;;;;8.00;2.38;;;21.60;31.50;;;;;;5054881;28;20198;-53
2024/01/21 10:31:33;;;;;;;5.40;2.10;;;21.70;31.70;;;;;;5054944;28;20306;-53
2024/01/21 10:34:03;;;;;;;5.00;2.20;;;21.70;31.70;;;;;;5054936;28;20194;-51
2024/01/21 10:36:35;;;;;;;4.05;1.95;;;21.70;31.80;;;;;;5054723;28;20219;-50
2024/01/21 10:39:06;;;;;;;6.93;2.40;;;21.70;31.80;;;;;;5054829;28;20237;-53
2024/01/21 10:41:34;;;;;;;7.47;2.47;;;21.70;31.80;;;;;;5054874;28;20239;-54
2024/01/21 10:44:05;;;;;;;6.30;2.10;;;21.70;31.90;;;;;;5054505;28;20195;-52
2024/01/21 10:46:33;;;;;;;8.25;2.53;;;21.70;32.00;;;;;;5054930;28;20302;-53
2024/01/21 10:49:01;;;;;;;7.68;2.15;;;21.70;32.00;;;;;;5054463;28;20192;-51
2024/01/21 10:51:29;;;;;;;5.95;1.92;;;21.70;32.00;;;;;;5054308;28;20748;-52
2024/01/21 10:53:59;;;;;;;7.53;2.35;;;21.70;32.00;;;;;;5054795;28;20196;-52
2024/01/21 10:56:27;;;;;;;5.65;2.25;;;21.70;32.10;;;;;;5054557;28;20689;-55
2024/01/21 10:58:54;;;;;;;7.43;2.28;;;21.70;32.20;;;;;;5054157;28;20567;-54
2024/01/21 11:01:25;;;;;;;6.85;2.03;;;21.70;32.20;;;;;;5054507;28;20322;-51
2024/01/21 11:04:04;;;;;;;9.45;2.35;;;21.70;32.20;;;;;;5054160;28;20562;-51
2024/01/21 11:06:32;;;;;;;6.38;2.30;;;21.70;32.30;;;;;;5053903;28;20594;-55
2024/01/21 11:09:01;;;;;;;4.35;1.92;;;21.70;32.20;;;;;;5053785;28;20243;-53
2024/01/21 11:11:28;;;;;;;6.57;2.47;;;21.70;32.30;;;;;;5054625;28;20216;-50
2024/01/21 11:13:56;;;;;;;7.30;2.38;;;21.70;32.40;;;;;;5053903;28;20276;-53
2024/01/21 11:16:37;;;;;;;6.68;2.47;;;21.70;32.40;;;;;;5054322;28;20216;-51
2024/01/21 11:19:06;;;;;;;7.88;2.50;;;21.70;32.60;;;;;;5054274;28;20290;-52
2024/01/21 11:21:34;;;;;;;6.25;2.38;;;21.70;32.50;;;;;;5053626;28;20711;-52
2024/01/21 11:24:04;;;;;;;9.73;2.50;;;21.70;32.60;;;;;;5053783;28;20238;-52
2024/01/21 11:26:31;;;;;;;6.70;2.40;;;21.70;32.60;;;;;;5054015;28;20226;-54
2024/01/21 11:28:59;;;;;;;8.40;2.70;;;21.70;32.70;;;;;;5053969;28;20188;-51
2024/01/21 11:31:28;;;;;;;7.60;2.65;;;21.70;32.80;;;;;;5054164;28;20216;-56
2024/01/21 11:34:06;;;;;;;6.32;2.50;;;21.70;32.80;;;;;;5053914;28;20192;-54
2024/01/21 11:36:33;;;;;;;7.38;2.33;;;21.70;32.80;;;;;;5053914;28;20223;-52
2024/01/21 11:39:02;;;;;;;7.63;2.45;;;21.70;32.80;;;;;;5053609;28;20191;-53
2024/01/21 11:41:38;;;;;;;6.93;2.72;;;21.70;32.80;;;;;;5053855;28;20242;-54
2024/01/21 11:44:13;;;;;;;6.57;2.63;;;21.70;33.50;;;;;;5053375;28;20194;-54
2024/01/21 11:46:41;;;;;;;6.75;2.42;;;21.70;32.80;;;;;;5053773;28;20215;-55
2024/01/21 11:49:10;;;;;;;9.80;2.60;;;21.70;32.80;;;;;;5053685;28;20275;-56
2024/01/21 11:51:37;;;;;;;7.25;2.50;;;21.70;32.80;;;;;;5053390;28;20238;-55
2024/01/21 11:54:05;;;;;;;8.85;2.72;;;21.70;32.80;;;;;;5053222;28;20726;-53
2024/01/21 11:56:32;;;;;;;8.57;2.60;;;21.70;32.80;;;;;;5053535;28;20298;-56
2024/01/21 11:59:00;;;;;;;8.07;2.53;;;21.70;33.50;;;;;;5052925;28;20723;-55
2024/01/21 12:01:27;;;;;;;8.60;2.80;;;21.70;32.80;;;;;;5053185;28;20241;-55
2024/01/21 12:03:55;;;;;;;7.85;2.42;;;21.70;32.80;;;;;;5053304;28;20188;-53
2024/01/21 12:06:25;;;;;;;7.53;2.50;;;21.70;32.90;;;;;;5052696;28;20215;-54
2024/01/21 12:08:52;;;;;;;6.80;2.42;;;21.80;33.00;;;;;;5052818;28;20231;-55
2024/01/21 12:11:19;;;;;;;9.60;2.92;;;21.80;33.10;;;;;;5053343;28;20672;-56
2024/01/21 12:13:46;;;;;;;9.85;2.75;;;21.80;33.10;;;;;;5052769;28;20195;-55
2024/01/21 12:16:13;;;;;;;7.20;2.45;;;21.80;33.10;;;;;;5052914;28;20717;-55
2024/01/21 12:18:41;;;;;;;8.10;2.47;;;21.80;33.20;;;;;;5052814;28;20756;-54
2024/01/21 12:21:08;;;;;;;6.45;2.22;;;21.80;33.30;;;;;;5052178;28;20298;-55
2024/01/21 12:23:40;;;;;;;7.60;2.80;;;21.80;33.30;;;;;;5052902;28;20195;-56
2024/01/21 12:26:07;;;;;;;9.02;3.15;;;21.80;33.40;;;;;;5053127;28;20302;-55
2024/01/21 12:28:34;;;;;;;8.98;2.83;;;21.80;33.40;;;;;;5052575;28;20271;-55
2024/01/21 12:31:01;;;;;;;6.90;2.40;;;21.80;33.50;;;;;;5053056;28;20219;-56
2024/01/21 12:33:28;;;;;;;8.02;2.85;;;21.80;33.50;;;;;;5052800;28;20191;-55
2024/01/21 12:35:55;;;;;;;8.35;2.50;;;21.80;33.60;;;;;;5052128;28;20296;-56
2024/01/21 12:38:23;;;;;;;8.20;2.72;;;21.80;33.60;;;;;;5053000;28;20286;-54
2024/01/21 12:40:51;;;;;;;10.18;2.70;;;21.80;33.60;;;;;;5052713;28;20212;-55
2024/01/21 12:43:18;;;;;;;7.65;2.80;;;21.80;33.70;;;;;;5052217;28;20217;-55
2024/01/21 12:45:45;;;;;;;10.30;2.50;;;21.80;33.70;;;;;;5052351;28;20592;-53
2024/01/21 12:48:12;;;;;;;6.47;2.40;;;21.80;33.80;;;;;;5052645;28;20238;-55